Time;durP1;ratioP1;P1;durP2;ratioP2;P2;SDS_P1;SDS_P2;PMS_P1;PMS_P2;Temp;Humidity;BMP_temperature;BMP_pressure;BME280_temperature;BME280_humidity;BME280_pressure;Samples;Min_cycle;Max_cycle;Signal;HPM_P1;HPM_P2
2022/03/23 00:02:53;;;;;;;83.70;42.00;;;;;;;2.98;49.26;100321.46;221091;1270;23973;-70
2022/03/23 00:08:04;;;;;;;81.90;37.40;;;;;;;2.76;49.49;100319.77;222904;1269;25245;-68
2022/03/23 00:13:06;;;;;;;77.30;36.90;;;;;;;2.58;49.74;100316.32;221267;1270;24272;-69
2022/03/23 00:18:17;;;;;;;77.90;37.10;;;;;;;2.43;50.03;100307.80;221170;1270;23840;-68
2022/03/23 00:23:27;;;;;;;78.10;36.90;;;;;;;2.32;50.48;100301.31;221277;1270;24303;-68
2022/03/23 00:28:40;;;;;;;76.30;37.10;;;;;;;2.20;50.93;100303.83;221271;1270;22574;-68
2022/03/23 00:33:42;;;;;;;74.40;35.30;;;;;;;2.10;51.20;100296.62;221092;1270;24300;-68
2022/03/23 00:38:44;;;;;;;88.60;41.90;;;;;;;2.02;51.37;100298.20;221047;1269;23852;-68
2022/03/23 00:43:53;;;;;;;126.40;54.80;;;;;;;1.91;51.61;100291.83;221222;1270;22837;-68
2022/03/23 00:48:58;;;;;;;98.70;44.70;;;;;;;1.80;52.03;100285.05;221126;1269;22471;-68
2022/03/23 00:54:00;;;;;;;92.70;44.40;;;;;;;1.74;52.17;100280.98;221246;1269;22904;-69
2022/03/23 00:59:03;;;;;;;104.20;48.40;;;;;;;1.68;52.31;100277.38;221304;1268;22519;-68
2022/03/23 01:04:09;;;;;;;109.20;47.70;;;;;;;1.68;52.50;100270.41;221161;1270;24221;-69
2022/03/23 01:09:15;;;;;;;120.90;50.30;;;;;;;1.66;52.50;100267.14;220948;1271;22691;-68
2022/03/23 01:14:23;;;;;;;106.00;48.60;;;;;;;1.66;52.52;100261.59;220764;1271;22560;-68
2022/03/23 01:19:36;;;;;;;100.10;46.90;;;;;;;1.72;52.90;100255.48;221216;1270;22653;-68
2022/03/23 01:25:00;;;;;;;106.00;46.10;;;;;;;1.78;53.05;100247.35;221313;1270;25312;-68
2022/03/23 01:30:15;;;;;;;103.00;47.30;;;;;;;1.80;53.16;100242.61;221296;1270;22843;-69
2022/03/23 01:35:18;;;;;;;95.10;43.90;;;;;;;1.79;53.11;100244.30;221383;1270;25318;-69
2022/03/23 01:40:25;;;;;;;93.00;45.50;;;;;;;1.74;53.18;100240.09;221154;1270;22650;-68
2022/03/23 01:45:29;;;;;;;83.70;39.80;;;;;;;1.66;53.26;100233.51;221608;1269;25781;-68
2022/03/23 01:50:42;;;;;;;87.30;41.10;;;;;;;1.61;53.65;100232.41;221324;1270;22550;-69
2022/03/23 01:56:01;;;;;;;85.80;39.60;;;;;;;1.55;53.54;100232.56;221395;1270;22685;-68
2022/03/23 02:01:06;;;;;;;91.10;39.90;;;;;;;1.49;53.71;100236.15;221140;1270;22834;-68
2022/03/23 02:06:13;;;;;;;81.90;39.60;;;;;;;1.42;53.80;100233.42;221153;1270;22678;-68
2022/03/23 02:11:34;;;;;;;79.60;39.60;;;;;;;1.34;53.90;100227.55;221141;1270;22528;-68
2022/03/23 02:16:50;;;;;;;85.30;38.70;;;;;;;1.25;54.07;100225.41;221039;1270;22488;-68
2022/03/23 02:22:20;;;;;;;78.20;37.90;;;;;;;1.15;54.07;100219.45;221259;1270;22688;-68
2022/03/23 02:28:10;;;;;;;81.20;38.70;;;;;;;1.04;54.55;100230.03;221517;1270;24187;-68
2022/03/23 02:33:37;;;;;;;83.20;39.20;;;;;;;0.94;55.46;100226.02;221291;1269;22576;-67
2022/03/23 02:39:00;;;;;;;94.40;40.80;;;;;;;0.81;55.33;100223.54;221317;1270;25196;-68
2022/03/23 02:44:19;;;;;;;87.90;40.90;;;;;;;0.70;55.69;100225.09;221225;1270;25454;-68
2022/03/23 02:49:22;;;;;;;93.00;42.10;;;;;;;0.59;56.04;100224.52;220999;1270;22588;-68
2022/03/23 03:05:13;;;;;;;93.30;42.40;;;;;;;0.31;56.63;100216.38;221197;1270;22794;-68
2022/03/23 03:10:20;;;;;;;84.80;41.30;;;;;;;0.25;56.61;100216.28;221327;1270;25349;-68
2022/03/23 03:15:23;;;;;;;95.80;43.40;;;;;;;0.19;56.83;100218.21;221374;1270;25213;-68
2022/03/23 03:20:29;;;;;;;101.70;45.50;;;;;;;0.17;57.32;100215.83;221183;1270;22574;-68
2022/03/23 03:25:35;;;;;;;87.20;42.50;;;;;;;0.18;57.38;100210.45;221442;1270;25427;-68
2022/03/23 03:30:43;;;;;;;95.20;41.90;;;;;;;0.19;57.60;100219.54;221132;1270;22527;-69
2022/03/23 03:35:46;;;;;;;96.90;44.10;;;;;;;0.16;57.77;100214.73;221134;1270;23067;-69
2022/03/23 03:40:55;;;;;;;101.40;46.10;;;;;;;0.12;58.04;100213.95;221162;1270;24198;-69
2022/03/23 03:46:07;;;;;;;100.20;46.20;;;;;;;0.06;58.24;100209.95;221188;1268;22542;-69
2022/03/23 03:51:21;;;;;;;98.80;45.90;;;;;;;-0.01;58.24;100208.97;221094;1270;22577;-69
2022/03/23 03:56:45;;;;;;;96.90;45.60;;;;;;;-0.01;58.80;100207.10;221186;1270;22741;-69
2022/03/23 04:01:51;;;;;;;98.50;46.60;;;;;;;-0.01;58.61;100205.49;220930;1271;22586;-69
2022/03/23 04:06:53;;;;;;;99.20;44.70;;;;;;;-0.00;58.62;100211.21;221141;1270;22550;-69
2022/03/23 04:11:55;;;;;;;98.80;46.00;;;;;;;0.00;58.93;100211.18;221139;1269;22539;-68
2022/03/23 04:16:58;;;;;;;93.30;43.70;;;;;;;-0.00;58.94;100209.41;221032;1271;22530;-68
2022/03/23 04:22:03;;;;;;;93.30;44.20;;;;;;;-0.00;58.95;100208.58;221265;1270;22680;-68
2022/03/23 04:27:06;;;;;;;74.60;37.70;;;;;;;-0.01;59.12;100207.80;221191;1270;24235;-68
2022/03/23 04:32:11;;;;;;;89.50;42.30;;;;;;;-0.04;59.37;100203.70;221097;1270;25402;-68
2022/03/23 04:37:19;;;;;;;93.90;43.80;;;;;;;-0.05;59.25;100203.30;220999;1270;22548;-67
2022/03/23 04:42:24;;;;;;;101.30;43.80;;;;;;;-0.03;59.51;100206.02;221644;1270;23954;-68
2022/03/23 04:47:30;;;;;;;100.30;42.90;;;;;;;-0.00;59.71;100207.85;221235;1269;24255;-68
2022/03/23 04:52:33;;;;;;;91.30;42.20;;;;;;;-0.00;59.88;100215.38;221114;1268;24255;-68
2022/03/23 04:57:39;;;;;;;100.50;46.90;;;;;;;0.00;60.06;100214.86;221275;1270;24580;-69
2022/03/23 05:02:43;;;;;;;98.80;46.50;;;;;;;-0.04;59.85;100214.58;221319;1270;25868;-68
2022/03/23 05:07:51;;;;;;;105.20;47.40;;;;;;;-0.08;59.87;100208.59;221220;1268;22574;-68
2022/03/23 05:12:53;;;;;;;98.00;45.60;;;;;;;-0.11;60.19;100210.54;221140;1270;25368;-69
2022/03/23 05:17:56;;;;;;;111.20;50.90;;;;;;;-0.13;60.20;100213.42;221438;1270;22523;-68
2022/03/23 05:23:02;;;;;;;125.90;58.70;;;;;;;-0.11;60.57;100213.99;221213;1270;22595;-68
2022/03/23 05:28:09;;;;;;;120.90;57.40;;;;;;;-0.03;60.81;100210.27;221087;1270;23828;-68
2022/03/23 05:33:16;;;;;;;128.00;56.10;;;;;;;0.07;60.99;100209.96;221584;1270;22468;-68
2022/03/23 05:38:21;;;;;;;112.70;53.90;;;;;;;0.19;61.01;100208.52;221267;1270;22522;-68
2022/03/23 05:43:31;;;;;;;114.80;52.80;;;;;;;0.36;61.08;100205.75;221223;1270;22522;-68
2022/03/23 05:48:33;;;;;;;115.10;51.80;;;;;;;0.54;60.96;100203.83;221128;1270;22726;-69
2022/03/23 05:53:37;;;;;;;105.30;50.80;;;;;;;0.70;61.02;100195.88;221330;1270;22569;-68
2022/03/23 05:58:42;;;;;;;109.60;52.90;;;;;;;0.88;61.01;100189.58;221266;1270;25422;-69
2022/03/23 06:03:44;;;;;;;117.60;54.70;;;;;;;1.14;60.86;100192.10;220984;1270;25891;-68
2022/03/23 06:08:49;;;;;;;93.90;48.60;;;;;;;1.40;60.97;100194.48;220813;1271;25277;-69
2022/03/23 06:13:52;;;;;;;102.70;50.00;;;;;;;1.70;60.86;100197.02;221198;1270;22636;-69
2022/03/23 06:19:07;;;;;;;93.60;46.90;;;;;;;1.99;60.55;100200.23;221354;1270;22708;-68
2022/03/23 06:24:16;;;;;;;113.60;52.40;;;;;;;2.29;60.35;100197.16;221128;1270;25305;-68
2022/03/23 06:29:18;;;;;;;120.20;60.50;;;;;;;2.54;60.14;100192.55;221007;1270;22822;-69
2022/03/23 06:34:20;;;;;;;119.60;60.70;;;;;;;2.78;60.16;100203.98;221220;1270;24441;-68
2022/03/23 06:39:23;;;;;;;123.70;61.80;;;;;;;3.01;60.35;100214.42;222510;1271;22549;-68
2022/03/23 06:44:25;;;;;;;116.20;63.20;;;;;;;3.24;60.22;100210.48;221601;1270;22675;-69
2022/03/23 06:49:29;;;;;;;103.60;54.50;;;;;;;3.47;60.12;100211.00;221623;1269;23109;-70
2022/03/23 06:54:34;;;;;;;95.40;48.60;;;;;;;3.72;59.61;100219.34;223464;1270;22584;-72
2022/03/23 06:59:36;;;;;;;83.60;47.20;;;;;;;3.98;58.84;100221.20;223573;1270;23832;-71
2022/03/23 07:04:38;;;;;;;82.30;45.00;;;;;;;4.26;58.41;100215.15;223835;1269;22658;-70
2022/03/23 07:09:41;;;;;;;79.60;42.60;;;;;;;4.55;57.98;100212.91;221540;1270;22621;-70
2022/03/23 07:14:43;;;;;;;79.00;43.80;;;;;;;4.84;57.40;100218.88;221492;1271;25374;-71
2022/03/23 07:19:46;;;;;;;81.80;42.00;;;;;;;5.17;56.92;100217.80;223537;1269;24217;-69
2022/03/23 07:24:59;;;;;;;74.20;41.80;;;;;;;5.49;56.56;100216.10;213692;1270;10347560;-67
2022/03/23 07:30:15;;;;;;;70.20;40.40;;;;;;;5.84;56.13;100219.95;221321;1271;23788;-70
2022/03/23 07:35:18;;;;;;;63.10;36.70;;;;;;;6.20;55.81;100213.06;223199;1270;22713;-71
2022/03/23 07:40:20;;;;;;;63.30;34.90;;;;;;;6.58;55.17;100208.81;223377;1270;24263;-71
2022/03/23 07:45:23;;;;;;;61.80;33.20;;;;;;;6.99;54.16;100203.98;223369;1271;24024;-71
2022/03/23 07:50:39;;;;;;;57.90;34.10;;;;;;;7.41;53.41;100194.05;223415;1270;22744;-70
2022/03/23 07:55:42;;;;;;;56.20;34.40;;;;;;;7.84;52.92;100194.02;223352;1270;24281;-71
2022/03/23 08:00:45;;;;;;;58.20;33.30;;;;;;;8.31;52.30;100192.80;223516;1269;22574;-70
2022/03/23 08:05:48;;;;;;;48.90;31.30;;;;;;;8.73;51.50;100183.46;223533;1270;22577;-70
2022/03/23 08:10:54;;;;;;;49.80;30.20;;;;;;;9.12;50.76;100184.40;223120;1270;22522;-71
2022/03/23 08:15:56;;;;;;;43.80;25.90;;;;;;;9.48;50.04;100181.66;222997;1271;22560;-70
2022/03/23 08:21:00;;;;;;;39.50;23.80;;;;;;;9.85;49.50;100181.27;222920;1271;22830;-70
2022/03/23 08:26:08;;;;;;;38.50;22.80;;;;;;;10.23;48.65;100178.09;223135;1270;25210;-70
2022/03/23 08:31:13;;;;;;;33.00;20.70;;;;;;;10.62;47.88;100175.06;223170;1271;23987;-71
2022/03/23 08:36:16;;;;;;;37.50;22.50;;;;;;;11.01;47.34;100173.23;223281;1269;22544;-70
2022/03/23 08:41:18;;;;;;;62.40;23.60;;;;;;;11.38;46.61;100173.66;221918;1270;24307;-69
2022/03/23 08:46:25;;;;;;;44.80;24.10;;;;;;;11.75;46.01;100169.02;221294;1271;25009;-69
2022/03/23 08:51:28;;;;;;;39.20;23.50;;;;;;;12.08;45.62;100167.93;221259;1268;23411;-70
2022/03/23 08:56:30;;;;;;;35.30;22.40;;;;;;;12.38;44.82;100166.56;221410;1271;22835;-70
2022/03/23 09:01:33;;;;;;;40.20;24.80;;;;;;;12.66;44.02;100166.55;221405;1271;24348;-71
2022/03/23 09:06:35;;;;;;;43.10;26.40;;;;;;;12.92;43.57;100158.05;221374;1271;22968;-73
2022/03/23 09:11:37;;;;;;;43.30;24.80;;;;;;;13.16;43.08;100156.25;221504;1268;22563;-69
2022/03/23 09:16:40;;;;;;;40.90;25.70;;;;;;;13.43;42.78;100152.67;221433;1270;22482;-70
2022/03/23 09:21:42;;;;;;;38.10;24.30;;;;;;;13.69;42.43;100148.01;223695;1270;22588;-68
2022/03/23 09:26:46;;;;;;;39.50;23.90;;;;;;;13.94;42.02;100145.73;221351;1270;22551;-69
2022/03/23 09:31:49;;;;;;;40.40;24.80;;;;;;;14.19;41.62;100142.81;221662;1270;23441;-69
2022/03/23 09:42:12;;;;;;;33.70;22.00;;;;;;;14.73;40.77;100128.64;221688;1270;22476;-68
2022/03/23 09:47:15;;;;;;;28.70;15.90;;;;;;;15.01;39.47;100129.77;221548;1270;22494;-69
2022/03/23 09:52:27;;;;;;;21.70;14.00;;;;;;;15.27;38.28;100116.86;222250;1270;22887;-67
2022/03/23 09:57:38;;;;;;;21.00;14.00;;;;;;;15.52;37.74;100110.09;221667;1270;22611;-69
2022/03/23 10:02:40;;;;;;;23.60;15.80;;;;;;;15.76;37.39;100109.70;221724;1270;23392;-69
2022/03/23 10:07:56;;;;;;;27.90;16.00;;;;;;;16.01;37.10;100109.56;222997;1269;22479;-69
2022/03/23 10:13:42;;;;;;;32.00;18.80;;;;;;;16.24;37.03;100097.59;221624;1270;22576;-68
2022/03/23 10:18:59;;;;;;;21.30;14.30;;;;;;;16.51;35.55;100096.80;221544;1269;22807;-69
2022/03/23 10:24:02;;;;;;;22.80;14.80;;;;;;;16.72;35.24;100087.95;221580;1270;26048;-69
2022/03/23 10:29:32;;;;;;;24.90;14.40;;;;;;;16.90;34.42;100081.75;221533;1270;24192;-67
2022/03/23 10:34:44;;;;;;;24.30;14.00;;;;;;;17.11;33.90;100074.73;221644;1270;24138;-68
2022/03/23 10:39:50;;;;;;;13.50;8.60;;;;;;;17.31;33.06;100071.99;221467;1270;22522;-69
2022/03/23 10:45:17;;;;;;;7.90;5.60;;;;;;;17.51;30.71;100062.94;221620;1270;24355;-70
2022/03/23 10:50:32;;;;;;;9.00;6.50;;;;;;;17.75;29.62;100065.61;221938;1269;22682;-69
2022/03/23 10:55:46;;;;;;;9.60;6.80;;;;;;;17.96;28.99;100057.75;221560;1270;25406;-69
2022/03/23 11:01:07;;;;;;;13.60;9.00;;;;;;;18.11;28.07;100052.38;222682;1270;24679;-68
2022/03/23 11:06:25;;;;;;;10.50;6.90;;;;;;;18.26;27.54;100045.93;221606;1270;22660;-67
2022/03/23 11:16:54;;;;;;;8.30;6.20;;;;;;;18.43;26.22;100036.85;221717;1269;22554;-68
2022/03/23 11:22:10;;;;;;;9.10;6.80;;;;;;;18.51;25.63;100026.80;221646;1270;22597;-69
2022/03/23 11:27:18;;;;;;;9.00;6.80;;;;;;;18.59;25.30;100020.47;221628;1270;22540;-68
2022/03/23 11:32:27;;;;;;;10.70;5.70;;;;;;;18.69;25.20;100007.52;221794;1269;22570;-68
2022/03/23 11:37:40;;;;;;;7.80;5.50;;;;;;;18.79;24.77;99998.08;222745;1270;22604;-68
2022/03/23 11:42:42;;;;;;;9.70;6.50;;;;;;;18.91;24.78;99987.52;222356;1270;22660;-69
2022/03/23 11:48:03;;;;;;;10.30;6.90;;;;;;;19.03;24.87;99981.26;221815;1269;22654;-69
2022/03/23 11:53:21;;;;;;;9.50;6.70;;;;;;;19.20;24.82;99970.39;222575;1270;22553;-69
2022/03/23 11:58:37;;;;;;;8.50;5.90;;;;;;;19.33;24.21;99964.64;221745;1269;25253;-70
2022/03/23 12:03:48;;;;;;;10.00;6.20;;;;;;;19.45;24.36;99962.92;223316;1270;22555;-69
2022/03/23 12:08:59;;;;;;;8.80;6.40;;;;;;;19.57;24.52;99955.00;221722;1270;23299;-69
2022/03/23 12:14:07;;;;;;;8.60;5.50;;;;;;;19.61;24.00;99951.09;221530;1270;22560;-69
2022/03/23 12:19:10;;;;;;;6.90;5.50;;;;;;;19.63;23.67;99943.48;221635;1269;25321;-68
2022/03/23 12:24:28;;;;;;;6.30;5.20;;;;;;;19.65;23.39;99941.56;221308;1271;23931;-69
2022/03/23 12:29:35;;;;;;;5.40;4.20;;;;;;;19.68;22.95;99931.17;221596;1270;23809;-69
2022/03/23 12:34:40;;;;;;;7.40;4.70;;;;;;;19.72;22.81;99920.93;222760;1269;23332;-69
2022/03/23 12:39:47;;;;;;;4.80;4.10;;;;;;;19.71;22.58;99913.13;227236;1270;24469;-69
2022/03/23 12:45:03;;;;;;;5.50;4.60;;;;;;;19.74;22.93;99901.29;222447;1270;22707;-70
2022/03/23 13:01:14;;;;;;;4.80;3.40;;;;;;;19.96;21.43;99887.66;221651;1268;22621;-69
2022/03/23 13:06:35;;;;;;;7.40;3.70;;;;;;;20.04;21.17;99883.25;223012;1270;22476;-69
2022/03/23 13:11:39;;;;;;;3.80;2.90;;;;;;;20.02;20.69;99880.59;221556;1270;24242;-69
2022/03/23 13:16:42;;;;;;;4.90;4.20;;;;;;;19.97;20.36;99871.34;221900;1268;23751;-71
2022/03/23 13:21:46;;;;;;;5.80;3.30;;;;;;;19.95;19.58;99860.21;221688;1270;23064;-71
2022/03/23 13:26:52;;;;;;;4.40;2.70;;;;;;;19.98;19.27;99852.16;222366;1269;25430;-71
2022/03/23 13:32:04;;;;;;;4.00;2.90;;;;;;;20.07;19.04;99847.94;221765;1268;25356;-70
2022/03/23 13:37:09;;;;;;;5.30;3.20;;;;;;;20.07;19.15;99838.25;223960;1270;22725;-71
2022/03/23 13:47:35;;;;;;;5.20;3.80;;;;;;;20.15;19.70;99827.30;221491;1270;25199;-70
2022/03/23 13:52:38;;;;;;;4.30;3.10;;;;;;;20.15;19.10;99826.69;221379;1270;25436;-71
2022/03/23 13:57:47;;;;;;;6.30;3.40;;;;;;;20.13;19.33;99823.58;221439;1267;24342;-70
2022/03/23 14:02:54;;;;;;;5.10;3.40;;;;;;;20.14;19.13;99815.83;222114;1270;22690;-69
2022/03/23 14:07:58;;;;;;;4.20;3.40;;;;;;;20.17;19.08;99813.47;221411;1270;22597;-71
2022/03/23 14:13:06;;;;;;;9.20;5.00;;;;;;;20.14;18.81;99812.17;223588;1270;22551;-68
2022/03/23 14:18:10;;;;;;;4.40;3.60;;;;;;;20.12;19.31;99802.30;221232;1271;22592;-69
2022/03/23 14:23:17;;;;;;;3.90;3.30;;;;;;;20.10;19.26;99791.88;221563;1269;22583;-69
2022/03/23 14:28:26;;;;;;;7.50;4.00;;;;;;;20.06;19.21;99783.57;221977;1270;22579;-69
2022/03/23 14:33:31;;;;;;;10.30;8.50;;;;;;;20.01;19.07;99775.52;221426;1268;24440;-69
2022/03/23 14:38:38;;;;;;;6.00;3.60;;;;;;;20.01;19.12;99766.42;222104;1268;23247;-69
2022/03/23 14:43:41;;;;;;;4.50;3.10;;;;;;;20.01;19.19;99766.67;221435;1270;22584;-69
2022/03/23 14:48:43;;;;;;;5.30;3.90;;;;;;;19.98;19.19;99758.33;223700;1270;23284;-69
2022/03/23 14:53:51;;;;;;;5.00;3.60;;;;;;;19.96;19.60;99753.04;221331;1269;24952;-70
2022/03/23 14:58:58;;;;;;;5.50;4.20;;;;;;;19.96;19.15;99744.39;221471;1269;22634;-69
2022/03/23 15:04:00;;;;;;;3.80;3.30;;;;;;;19.89;18.95;99739.23;221557;1270;22684;-69
2022/03/23 15:14:23;;;;;;;3.50;2.80;;;;;;;19.78;18.73;99730.70;220925;1271;25322;-69
2022/03/23 15:19:25;;;;;;;3.30;3.00;;;;;;;19.71;18.59;99725.58;221014;1270;22770;-70
2022/03/23 15:24:27;;;;;;;4.70;3.50;;;;;;;19.62;18.76;99719.40;221108;1269;25203;-69
2022/03/23 15:29:30;;;;;;;3.60;2.50;;;;;;;19.52;18.73;99714.59;222467;1270;22600;-68
2022/03/23 15:34:33;;;;;;;6.70;2.80;;;;;;;19.43;18.87;99711.39;221071;1270;23690;-69
2022/03/23 15:39:35;;;;;;;4.20;2.80;;;;;;;19.36;18.85;99706.59;221114;1270;22583;-69
2022/03/23 15:44:39;;;;;;;5.30;4.40;;;;;;;19.31;18.77;99705.65;220910;1270;22605;-69
2022/03/23 15:49:44;;;;;;;4.70;3.30;;;;;;;19.20;19.08;99704.71;221008;1270;23829;-68
2022/03/23 15:54:46;;;;;;;3.80;2.70;;;;;;;19.02;19.47;99705.03;220935;1270;22593;-69
2022/03/23 15:59:48;;;;;;;3.50;2.80;;;;;;;18.80;19.83;99700.72;221079;1270;23078;-69
2022/03/23 16:04:53;;;;;;;4.70;3.10;;;;;;;18.55;19.96;99696.73;221084;1270;22526;-68
2022/03/23 16:09:56;;;;;;;4.00;3.20;;;;;;;18.34;19.93;99692.22;221046;1269;25415;-69
2022/03/23 16:15:02;;;;;;;7.80;4.50;;;;;;;18.19;19.79;99693.26;221151;1270;22960;-69
2022/03/23 16:20:06;;;;;;;5.10;3.30;;;;;;;18.01;20.15;99695.23;221162;1270;22553;-69
2022/03/23 16:25:09;;;;;;;5.60;3.40;;;;;;;17.79;20.51;99692.61;221713;1269;23858;-68
2022/03/23 16:30:15;;;;;;;4.30;3.50;;;;;;;17.56;21.08;99693.30;221290;1270;22543;-69
2022/03/23 16:35:17;;;;;;;7.90;4.10;;;;;;;17.29;21.29;99692.60;221245;1270;22555;-69
2022/03/23 16:40:20;;;;;;;4.90;4.00;;;;;;;17.04;21.73;99688.31;221034;1270;23960;-68
2022/03/23 16:45:26;;;;;;;5.90;4.00;;;;;;;16.77;22.00;99678.20;221300;1270;24308;-69
2022/03/23 16:50:31;;;;;;;6.70;4.60;;;;;;;16.46;22.44;99685.54;221172;1270;22834;-69
2022/03/23 16:55:33;;;;;;;7.20;5.30;;;;;;;16.14;22.66;99690.55;221203;1269;25899;-69
2022/03/23 17:00:36;;;;;;;10.00;6.60;;;;;;;15.88;23.10;99684.59;220980;1269;22613;-68
2022/03/23 17:16:49;;;;;;;14.90;10.00;;;;;;;15.08;23.93;99676.55;220997;1270;22479;-70
2022/03/23 17:21:55;;;;;;;13.50;8.60;;;;;;;14.84;24.29;99676.02;221210;1270;24338;-68
2022/03/23 17:26:57;;;;;;;15.00;8.40;;;;;;;14.58;24.26;99678.35;221472;1270;22707;-68
2022/03/23 17:32:03;;;;;;;9.50;6.70;;;;;;;14.37;24.35;99683.77;221112;1270;22655;-69
2022/03/23 17:37:07;;;;;;;12.00;8.10;;;;;;;14.20;24.35;99686.41;221453;1270;23946;-69
2022/03/23 17:42:12;;;;;;;13.60;7.40;;;;;;;14.05;24.48;99687.85;221106;1270;23967;-70
2022/03/23 17:47:15;;;;;;;12.40;8.10;;;;;;;13.88;24.66;99692.02;221409;1270;22584;-68
2022/03/23 17:52:26;;;;;;;17.80;8.30;;;;;;;13.73;24.73;99692.97;221618;1270;24269;-69
2022/03/23 17:57:29;;;;;;;14.30;8.80;;;;;;;13.59;24.80;99691.08;221057;1270;24447;-69
2022/03/23 18:02:31;;;;;;;12.80;8.30;;;;;;;13.40;24.87;99690.02;221076;1270;24223;-69
2022/03/23 18:07:34;;;;;;;12.10;8.20;;;;;;;13.20;24.97;99689.00;221066;1270;25107;-70
2022/03/23 18:12:37;;;;;;;12.90;9.00;;;;;;;12.99;25.09;99687.85;221231;1270;23970;-69
2022/03/23 18:17:43;;;;;;;15.50;9.40;;;;;;;12.75;25.32;99684.86;221123;1270;24200;-69
2022/03/23 18:22:49;;;;;;;18.80;11.70;;;;;;;12.47;25.70;99689.67;221449;1270;22631;-69
2022/03/23 18:27:51;;;;;;;19.00;11.70;;;;;;;12.20;26.24;99692.66;221521;1270;22484;-69
2022/03/23 18:32:54;;;;;;;26.50;15.60;;;;;;;11.92;26.63;99694.64;221004;1270;22669;-69
2022/03/23 18:37:56;;;;;;;21.20;14.50;;;;;;;11.66;26.68;99691.34;221191;1270;23390;-68
2022/03/23 18:42:58;;;;;;;21.00;13.30;;;;;;;11.44;26.61;99692.47;221052;1270;23839;-70
2022/03/23 18:48:00;;;;;;;22.60;14.70;;;;;;;11.20;27.07;99693.95;221234;1270;24216;-69
2022/03/23 18:53:02;;;;;;;25.10;14.80;;;;;;;10.96;27.47;99686.06;221174;1270;24254;-71
2022/03/23 18:58:05;;;;;;;26.40;15.00;;;;;;;10.74;27.78;99681.77;221131;1270;22536;-69
2022/03/23 19:03:08;;;;;;;22.60;14.50;;;;;;;10.52;27.81;99682.33;221636;1270;22488;-69
2022/03/23 19:08:10;;;;;;;19.50;13.70;;;;;;;10.33;27.82;99676.86;221583;1270;24313;-67
2022/03/23 19:13:16;;;;;;;21.60;14.10;;;;;;;10.17;27.98;99681.27;221145;1268;22600;-70
2022/03/23 19:18:18;;;;;;;22.00;14.40;;;;;;;10.04;28.08;99679.18;221291;1270;22526;-70
2022/03/23 19:23:20;;;;;;;28.60;16.90;;;;;;;9.92;28.28;99681.38;222127;1270;466485;-71
2022/03/23 19:28:24;;;;;;;35.30;20.30;;;;;;;9.80;28.55;99681.17;222564;1268;23599;-70
2022/03/23 19:33:27;;;;;;;39.50;24.30;;;;;;;9.69;28.82;99680.84;222904;1269;22973;-70
2022/03/23 19:38:30;;;;;;;35.70;22.50;;;;;;;9.61;28.95;99676.31;222431;1268;25328;-70
2022/03/23 19:43:32;;;;;;;46.60;24.80;;;;;;;9.54;29.12;99672.64;222072;1271;25214;-69
2022/03/23 19:48:34;;;;;;;37.70;21.50;;;;;;;9.47;29.29;99671.05;221182;1270;22581;-69
2022/03/23 19:53:37;;;;;;;40.40;22.70;;;;;;;9.41;29.36;99669.37;221166;1270;22604;-71
2022/03/23 19:58:39;;;;;;;37.60;22.20;;;;;;;9.31;29.46;99668.54;222724;1269;23382;-69
2022/03/23 20:03:56;;;;;;;42.50;23.10;;;;;;;9.22;29.59;99670.58;221127;1270;25184;-70
2022/03/23 20:09:18;;;;;;;41.40;25.30;;;;;;;9.10;29.72;99664.51;221028;1270;22702;-69
2022/03/23 20:14:21;;;;;;;56.00;30.30;;;;;;;8.99;29.78;99661.11;221126;1269;24353;-69
2022/03/23 20:19:23;;;;;;;59.50;33.00;;;;;;;8.89;29.71;99653.92;221451;1270;25390;-70
2022/03/23 20:24:25;;;;;;;61.90;34.50;;;;;;;8.80;29.89;99652.52;220998;1270;22501;-68
2022/03/23 20:29:27;;;;;;;57.30;32.80;;;;;;;8.68;29.96;99653.22;220942;1270;25419;-69
2022/03/23 20:34:29;;;;;;;61.20;32.80;;;;;;;8.57;30.39;99645.48;221024;1270;25410;-70
2022/03/23 20:39:32;;;;;;;66.40;33.80;;;;;;;8.43;30.53;99646.62;221139;1269;25302;-69
2022/03/23 20:44:34;;;;;;;70.20;34.60;;;;;;;8.34;31.17;99641.55;221111;1267;25524;-69
2022/03/23 20:49:37;;;;;;;65.00;33.10;;;;;;;8.26;30.99;99640.52;220888;1270;22545;-70
2022/03/23 20:54:39;;;;;;;61.60;32.60;;;;;;;8.25;31.05;99644.30;220966;1270;22545;-69
2022/03/23 20:59:43;;;;;;;65.10;33.00;;;;;;;8.21;30.86;99647.93;220882;1269;22596;-70
2022/03/23 21:04:49;;;;;;;64.60;34.20;;;;;;;8.13;31.07;99641.66;221305;1270;22552;-69
2022/03/23 21:09:52;;;;;;;67.10;36.80;;;;;;;8.10;31.21;99648.63;221309;1270;24231;-68
2022/03/23 21:15:05;;;;;;;79.80;39.50;;;;;;;8.05;31.34;99647.88;221023;1270;22723;-67
2022/03/23 21:20:08;;;;;;;79.60;41.60;;;;;;;7.99;31.55;99644.17;221080;1270;22535;-70
2022/03/23 21:25:11;;;;;;;80.90;41.70;;;;;;;7.94;31.89;99638.41;221163;1270;24349;-69
2022/03/23 21:30:17;;;;;;;84.40;43.80;;;;;;;7.82;31.62;99635.98;221009;1270;22578;-69
2022/03/23 21:35:32;;;;;;;88.40;43.70;;;;;;;7.68;31.67;99635.48;221380;1270;22916;-68
2022/03/23 21:40:42;;;;;;;89.20;42.60;;;;;;;7.53;32.17;99633.43;221088;1269;23850;-69
2022/03/23 21:45:45;;;;;;;86.20;42.70;;;;;;;7.42;32.39;99630.73;221158;1270;23798;-69
2022/03/23 21:50:47;;;;;;;85.20;43.20;;;;;;;7.30;32.72;99627.80;220933;1270;22751;-68
2022/03/23 21:55:57;;;;;;;90.20;43.60;;;;;;;7.19;32.97;99625.55;220988;1270;22468;-68
2022/03/23 22:01:00;;;;;;;;;;;;;;;7.08;33.09;99633.45;221026;1270;22475;-69
2022/03/23 22:06:02;;;;;;;79.50;37.20;;;;;;;6.96;33.10;99632.85;221028;1270;22858;-69
2022/03/23 22:11:04;;;;;;;83.20;40.80;;;;;;;6.89;33.56;99636.05;221301;1270;22597;-69
2022/03/23 22:16:07;;;;;;;82.00;40.60;;;;;;;6.83;34.15;99635.30;221195;1270;22633;-69
2022/03/23 22:21:09;;;;;;;83.90;39.50;;;;;;;6.72;34.13;99629.91;221070;1270;22519;-69
2022/03/23 22:26:12;;;;;;;71.00;36.60;;;;;;;6.64;34.74;99624.02;221097;1269;24338;-69
2022/03/23 22:31:16;;;;;;;71.60;33.40;;;;;;;6.59;34.89;99620.07;221197;1270;24019;-69
2022/03/23 22:36:19;;;;;;;62.60;32.50;;;;;;;6.56;35.09;99608.34;221113;1269;22694;-69
2022/03/23 22:41:21;;;;;;;54.00;29.70;;;;;;;6.50;34.94;99609.48;221123;1270;25322;-70
2022/03/23 22:46:23;;;;;;;60.80;30.90;;;;;;;6.44;34.92;99619.38;220617;1270;25868;-69
2022/03/23 22:51:26;;;;;;;62.60;29.70;;;;;;;6.31;35.15;99619.23;220966;1270;26012;-69
2022/03/23 22:56:32;;;;;;;65.60;33.60;;;;;;;6.14;35.47;99617.70;221036;1270;22593;-69
2022/03/23 23:01:34;;;;;;;67.50;33.80;;;;;;;5.96;35.79;99614.48;221067;1270;23810;-69
2022/03/23 23:06:39;;;;;;;73.50;35.20;;;;;;;5.77;36.33;99611.13;221236;1270;24273;-69
2022/03/23 23:11:45;;;;;;;69.50;32.60;;;;;;;5.59;36.53;99615.70;221181;1270;24959;-70
2022/03/23 23:16:47;;;;;;;68.40;33.10;;;;;;;5.41;37.14;99616.77;221155;1270;22587;-68
2022/03/23 23:21:49;;;;;;;61.20;32.30;;;;;;;5.25;37.61;99615.27;221347;1270;22637;-69
2022/03/23 23:27:22;;;;;;;66.10;33.20;;;;;;;5.11;37.74;99611.27;221113;1270;22827;-68
2022/03/23 23:32:43;;;;;;;65.50;32.50;;;;;;;4.95;38.25;99613.95;221034;1270;22480;-68
2022/03/23 23:37:49;;;;;;;60.00;30.80;;;;;;;4.81;38.10;99610.80;221047;1270;22896;-68
2022/03/23 23:42:54;;;;;;;67.50;32.10;;;;;;;4.69;38.50;99609.52;221207;1270;22487;-68
2022/03/23 23:47:59;;;;;;;73.20;34.10;;;;;;;4.59;38.87;99609.98;221077;1270;22482;-68
2022/03/23 23:53:02;;;;;;;66.00;33.40;;;;;;;4.49;39.42;99603.79;221019;1270;22710;-68
2022/03/23 23:58:04;;;;;;;71.20;33.90;;;;;;;4.39;39.75;99604.23;221133;1269;22559;-68
